createdAt,value
2019-02-02T00:00:18.819Z,69.84
2019-02-02T00:02:22.839Z,69.81
2019-02-02T00:04:25.999Z,69.72
2019-02-02T00:06:28.877Z,69.64
2019-02-02T00:08:31.850Z,69.67
2019-02-02T00:10:34.843Z,69.63
2019-02-02T00:12:37.768Z,69.67
2019-02-02T00:14:41.622Z,69.76
2019-02-02T00:16:44.571Z,69.78
2019-02-02T00:18:48.484Z,69.73
2019-02-02T00:20:51.477Z,69.72
2019-02-02T00:22:56.001Z,69.75
2019-02-02T00:24:58.989Z,69.77
2019-02-02T00:27:04.004Z,69.84
2019-02-02T00:29:06.784Z,69.88
2019-02-02T00:31:09.702Z,69.89
2019-02-02T00:33:12.627Z,70.01
2019-02-02T00:35:16.618Z,70.04
2019-02-02T00:37:21.603Z,70.04
2019-02-02T00:39:24.320Z,69.98
2019-02-02T00:41:27.278Z,70.00
2019-02-02T00:43:30.246Z,70.02
2019-02-02T00:45:33.131Z,69.99
2019-02-02T00:47:36.083Z,69.93
2019-02-02T00:49:39.005Z,70.14
2019-02-02T00:51:41.942Z,70.38
2019-02-02T00:53:44.869Z,70.75
2019-02-02T00:55:47.849Z,71.09
2019-02-02T00:57:54.162Z,71.15
2019-02-02T00:59:55.525Z,71.14
2019-02-02T01:01:58.423Z,71.12
2019-02-02T01:04:03.371Z,71.52
2019-02-02T01:06:06.349Z,71.71
2019-02-02T01:08:09.401Z,71.58
2019-02-02T01:10:16.262Z,71.46
2019-02-02T01:12:19.166Z,71.33
2019-02-02T01:14:22.053Z,71.32
2019-02-02T01:16:25.072Z,71.18
2019-02-02T01:18:28.143Z,71.93
2019-02-02T01:20:32.107Z,72.01
2019-02-02T01:22:36.141Z,72.31
2019-02-02T01:24:39.021Z,72.68
2019-02-02T01:26:41.950Z,72.83
2019-02-02T01:28:44.794Z,73.25
2019-02-02T01:30:48.748Z,73.53
2019-02-02T01:32:51.573Z,74.30
2019-02-02T01:34:54.491Z,74.56
2019-02-02T01:36:58.345Z,74.38
2019-02-02T01:39:04.630Z,74.31
2019-02-02T01:41:07.442Z,74.36
2019-02-02T01:43:12.438Z,74.11
2019-02-02T01:45:19.025Z,73.78
2019-02-02T01:47:22.204Z,73.67
2019-02-02T01:49:25.070Z,73.51
2019-02-02T01:51:27.949Z,73.67
2019-02-02T01:53:31.033Z,73.77
2019-02-02T01:55:33.910Z,73.59
2019-02-02T01:57:37.149Z,73.53
2019-02-02T01:59:39.967Z,73.50
2019-02-02T02:01:42.827Z,73.44
2019-02-02T02:03:45.780Z,73.31
2019-02-02T02:05:48.634Z,73.13
2019-02-02T02:07:51.618Z,73.15
2019-02-02T02:09:55.597Z,73.21
2019-02-02T02:11:58.426Z,73.28
2019-02-02T02:14:01.369Z,73.41
2019-02-02T02:16:05.894Z,73.58
2019-02-02T02:18:08.933Z,73.79
2019-02-02T02:20:12.379Z,73.94
2019-02-02T02:22:15.363Z,73.99
2019-02-02T02:24:18.380Z,73.97
2019-02-02T02:26:21.301Z,73.93
2019-02-02T02:28:28.206Z,74.17
2019-02-02T02:30:28.828Z,74.49
2019-02-02T02:32:31.691Z,74.70
2019-02-02T02:34:34.629Z,75.13
2019-02-02T02:36:38.600Z,75.02
2019-02-02T02:38:42.581Z,75.00
2019-02-02T02:40:45.485Z,74.94
2019-02-02T02:42:48.428Z,75.06
2019-02-02T02:44:51.335Z,75.16
2019-02-02T02:46:54.130Z,75.02
2019-02-02T02:48:57.192Z,75.02
2019-02-02T02:51:00.034Z,74.75
2019-02-02T02:53:02.962Z,74.75
2019-02-02T02:55:07.180Z,74.98
2019-02-02T02:57:09.965Z,75.06
2019-02-02T02:59:13.005Z,74.76
2019-02-02T03:03:27.450Z,74.37
2019-02-02T03:05:30.325Z,74.78
2019-02-02T03:07:33.157Z,74.56
2019-02-02T03:09:36.004Z,74.41
2019-02-02T03:11:39.869Z,74.21
2019-02-02T03:13:42.777Z,74.08
2019-02-02T03:15:45.849Z,74.09
2019-02-02T03:17:48.800Z,74.16
2019-02-02T03:19:51.740Z,74.18
2019-02-02T03:21:54.968Z,74.14
2019-02-02T03:23:57.826Z,74.39
2019-02-02T03:26:00.638Z,74.17
2019-02-02T03:28:03.606Z,73.95
2019-02-02T03:30:08.106Z,73.93
2019-02-02T03:32:10.964Z,73.96
2019-02-02T03:34:13.854Z,74.33
2019-02-02T03:36:16.781Z,74.36
2019-02-02T03:38:19.603Z,74.39
2019-02-02T03:40:22.458Z,74.68
2019-02-02T03:42:25.349Z,74.94
2019-02-02T03:44:28.361Z,74.84
2019-02-02T03:46:31.209Z,74.80
2019-02-02T03:48:34.120Z,74.65
2019-02-02T03:50:38.020Z,74.53
2019-02-02T03:52:40.910Z,74.32
2019-02-02T03:54:43.852Z,74.27
2019-02-02T03:56:46.638Z,74.35
2019-02-02T03:58:49.374Z,74.28
2019-02-02T04:00:52.577Z,74.27
2019-02-02T04:02:55.413Z,74.09
2019-02-02T04:05:01.065Z,73.91
2019-02-02T04:07:03.921Z,73.78
2019-02-02T04:09:07.463Z,73.67
2019-02-02T04:11:10.340Z,73.73
2019-02-02T04:13:13.267Z,73.67
2019-02-02T04:15:19.110Z,73.65
2019-02-02T04:17:21.885Z,73.64
2019-02-02T04:19:24.755Z,73.64
2019-02-02T04:21:28.800Z,73.57
2019-02-02T04:23:31.925Z,73.42
2019-02-02T04:25:34.925Z,73.29
2019-02-02T04:27:37.805Z,73.29
2019-02-02T04:29:40.802Z,73.17
2019-02-02T04:31:46.319Z,73.12
2019-02-02T04:33:49.256Z,73.36
2019-02-02T04:35:52.107Z,73.71
2019-02-02T04:37:54.943Z,73.85
2019-02-02T04:39:57.787Z,74.01
2019-02-02T04:42:00.653Z,73.97
2019-02-02T04:44:03.605Z,73.86
2019-02-02T04:46:06.600Z,73.64
2019-02-02T04:48:09.533Z,73.44
2019-02-02T04:50:13.795Z,73.33
2019-02-02T04:52:16.753Z,73.19
2019-02-02T04:54:19.765Z,73.08
2019-02-02T04:56:22.771Z,72.95
2019-02-02T04:58:25.629Z,72.80
2019-02-02T05:00:28.673Z,72.77
2019-02-02T05:02:31.465Z,72.76
2019-02-02T05:04:34.406Z,72.86
2019-02-02T05:06:37.287Z,72.74
2019-02-02T05:08:41.803Z,72.68
2019-02-02T05:10:44.810Z,72.85
2019-02-02T05:12:47.915Z,73.06
2019-02-02T05:14:50.787Z,73.22
2019-02-02T05:16:53.598Z,73.37
2019-02-02T05:18:56.521Z,73.34
2019-02-02T05:20:59.477Z,73.24
2019-02-02T05:23:02.544Z,73.12
2019-02-02T05:25:05.997Z,73.01
2019-02-02T05:27:08.756Z,73.01
2019-02-02T05:29:11.565Z,73.05
2019-02-02T05:31:14.437Z,73.18
2019-02-02T05:33:17.443Z,73.12
2019-02-02T05:35:20.184Z,73.05
2019-02-02T05:37:23.085Z,73.05
2019-02-02T05:39:25.931Z,73.10
2019-02-02T05:41:28.794Z,73.10
2019-02-02T05:43:31.758Z,73.07
2019-02-02T05:45:34.687Z,73.02
2019-02-02T05:47:37.613Z,72.89
2019-02-02T05:49:40.462Z,72.82
2019-02-02T05:51:43.419Z,72.75
2019-02-02T05:53:46.476Z,72.62
2019-02-02T05:55:49.793Z,72.48
2019-02-02T05:57:52.940Z,72.41
2019-02-02T05:59:55.815Z,72.33
2019-02-02T06:01:58.693Z,72.23
2019-02-02T06:04:01.504Z,72.19
2019-02-02T06:06:05.370Z,72.20
2019-02-02T06:08:08.309Z,72.21
2019-02-02T06:10:12.668Z,72.39
2019-02-02T06:12:17.246Z,72.79
2019-02-02T06:14:20.271Z,72.93
2019-02-02T06:16:24.336Z,73.29
2019-02-02T06:18:28.509Z,73.27
2019-02-02T06:20:31.589Z,73.47
2019-02-02T06:22:34.359Z,73.71
2019-02-02T06:24:37.213Z,73.83
2019-02-02T06:26:40.161Z,74.07
2019-02-02T06:28:43.188Z,74.37
2019-02-02T06:30:45.994Z,74.57
2019-02-02T06:32:48.903Z,74.50
2019-02-02T06:34:51.807Z,74.61
2019-02-02T06:36:54.554Z,74.52
2019-02-02T06:38:57.495Z,74.39
2019-02-02T06:41:00.367Z,74.28
2019-02-02T06:43:04.470Z,74.24
2019-02-02T06:45:10.417Z,74.26
2019-02-02T06:47:14.420Z,74.27
2019-02-02T06:49:17.263Z,74.31
2019-02-02T06:51:21.317Z,74.46
2019-02-02T06:53:25.939Z,74.34
2019-02-02T06:55:29.895Z,74.27
2019-02-02T06:57:32.756Z,74.30
2019-02-02T06:59:35.687Z,74.11
2019-02-02T07:01:38.516Z,74.00
2019-02-02T07:03:47.657Z,73.97
2019-02-02T07:05:46.687Z,73.99
2019-02-02T07:07:49.685Z,73.93
2019-02-02T07:09:52.697Z,73.79
2019-02-02T07:11:55.481Z,73.63
2019-02-02T07:13:58.453Z,73.48
2019-02-02T07:16:01.319Z,73.48
2019-02-02T07:18:04.279Z,73.54
2019-02-02T07:20:08.663Z,73.74
2019-02-02T07:22:11.627Z,74.07
2019-02-02T07:24:14.489Z,74.19
2019-02-02T07:26:17.338Z,74.36
2019-02-02T07:28:20.363Z,74.31
2019-02-02T07:30:28.589Z,74.32
2019-02-02T07:32:27.903Z,74.20
2019-02-02T07:34:30.994Z,74.00
2019-02-02T07:36:33.904Z,73.84
2019-02-02T07:38:36.818Z,73.82
2019-02-02T07:40:42.408Z,73.90
2019-02-02T07:42:45.359Z,73.97
2019-02-02T07:44:49.402Z,74.01
2019-02-02T07:46:52.291Z,73.96
2019-02-02T07:48:55.348Z,73.78
2019-02-02T07:50:58.208Z,73.66
2019-02-02T07:53:01.075Z,73.55
2019-02-02T07:55:04.124Z,73.45
2019-02-02T07:57:07.140Z,73.32
2019-02-02T07:59:10.274Z,73.26
2019-02-02T08:01:13.264Z,73.22
2019-02-02T08:03:16.130Z,73.24
2019-02-02T08:05:18.974Z,73.29
2019-02-02T08:07:21.872Z,73.43
2019-02-02T08:09:24.738Z,73.44
2019-02-02T08:11:30.728Z,73.58
2019-02-02T08:13:33.599Z,73.70
2019-02-02T08:15:36.596Z,73.74
2019-02-02T08:17:39.339Z,73.71
2019-02-02T08:19:42.303Z,73.75
2019-02-02T08:21:45.271Z,73.75
2019-02-02T08:23:48.038Z,73.71
2019-02-02T08:25:51.038Z,73.78
2019-02-02T08:27:53.902Z,73.98
2019-02-02T08:29:56.785Z,74.19
2019-02-02T08:31:59.711Z,74.14
2019-02-02T08:34:02.708Z,74.11
2019-02-02T08:36:08.316Z,74.09
2019-02-02T08:38:12.256Z,74.07
2019-02-02T08:40:15.565Z,73.95
2019-02-02T08:42:18.557Z,73.98
2019-02-02T08:44:22.425Z,73.86
2019-02-02T08:46:26.603Z,73.82
2019-02-02T08:48:32.122Z,73.62
2019-02-02T08:50:37.712Z,73.53
2019-02-02T08:52:40.694Z,73.40
2019-02-02T08:54:43.621Z,73.31
2019-02-02T08:56:48.498Z,73.29
2019-02-02T08:58:51.515Z,73.30
2019-02-02T09:01:04.332Z,73.30
2019-02-02T09:03:02.193Z,73.21
2019-02-02T09:05:05.716Z,73.19
2019-02-02T09:07:08.705Z,73.45
2019-02-02T09:09:11.624Z,73.47
2019-02-02T09:11:14.680Z,73.47
2019-02-02T09:13:17.708Z,73.62
2019-02-02T09:15:21.693Z,73.49
2019-02-02T09:17:24.595Z,73.44
2019-02-02T09:19:30.665Z,73.44
2019-02-02T09:21:33.533Z,73.42
2019-02-02T09:23:36.355Z,73.59
2019-02-02T09:25:39.492Z,73.59
2019-02-02T09:27:42.431Z,73.54
2019-02-02T09:29:47.819Z,73.71
2019-02-02T09:31:52.162Z,73.56
2019-02-02T09:33:55.041Z,73.52
2019-02-02T09:35:57.776Z,73.61
2019-02-02T09:38:00.796Z,73.47
2019-02-02T09:40:04.699Z,73.47
2019-02-02T09:42:09.994Z,73.46
2019-02-02T09:44:13.025Z,73.47
2019-02-02T09:46:16.059Z,73.56
2019-02-02T09:48:19.130Z,73.58
2019-02-02T09:50:23.252Z,74.03
2019-02-02T09:52:26.297Z,74.56
2019-02-02T09:54:29.282Z,74.37
2019-02-02T09:56:32.307Z,74.20
2019-02-02T09:58:35.484Z,74.00
2019-02-02T10:00:38.604Z,73.63
2019-02-02T10:02:41.592Z,73.26
2019-02-02T10:04:44.817Z,73.12
2019-02-02T10:06:47.773Z,73.14
2019-02-02T10:08:50.809Z,73.18
2019-02-02T10:10:53.815Z,73.21
2019-02-02T10:12:57.073Z,73.18
2019-02-02T10:15:00.099Z,73.21
2019-02-02T10:17:03.310Z,73.30
2019-02-02T10:19:06.396Z,73.34
2019-02-02T10:21:09.407Z,73.32
2019-02-02T10:23:12.217Z,73.34
2019-02-02T10:25:17.359Z,73.31
2019-02-02T10:27:20.476Z,73.31
2019-02-02T10:29:23.334Z,73.28
2019-02-02T10:31:26.293Z,73.30
2019-02-02T10:33:29.151Z,73.31
2019-02-02T10:35:32.223Z,73.29
2019-02-02T10:37:36.218Z,73.33
2019-02-02T10:39:39.123Z,73.32
2019-02-02T10:41:42.127Z,73.30
2019-02-02T10:43:45.011Z,73.23
2019-02-02T10:45:47.804Z,73.17
2019-02-02T10:47:50.591Z,73.00
2019-02-02T10:49:54.091Z,72.85
2019-02-02T10:51:58.016Z,72.78
2019-02-02T10:54:02.008Z,72.75
2019-02-02T10:56:04.993Z,72.87
2019-02-02T10:58:07.895Z,72.93
2019-02-02T11:00:14.286Z,72.94
2019-02-02T11:02:19.469Z,72.79
2019-02-02T11:04:22.753Z,72.67
2019-02-02T11:06:26.607Z,72.60
2019-02-02T11:08:29.484Z,72.56
2019-02-02T11:10:32.660Z,72.51
2019-02-02T11:12:35.475Z,72.64
2019-02-02T11:14:38.444Z,72.75
2019-02-02T11:16:41.522Z,72.78
2019-02-02T11:18:44.744Z,72.91
2019-02-02T11:20:48.597Z,72.72
2019-02-02T11:22:51.574Z,72.63
2019-02-02T11:24:55.620Z,72.71
2019-02-02T11:26:58.604Z,72.71
2019-02-02T11:29:02.211Z,72.68
2019-02-02T11:31:05.326Z,72.62
2019-02-02T11:33:08.225Z,72.61
2019-02-02T11:35:12.277Z,72.51
2019-02-02T11:37:15.034Z,72.43
2019-02-02T11:39:17.929Z,72.41
2019-02-02T11:41:20.948Z,72.33
2019-02-02T11:43:23.987Z,72.27
2019-02-02T11:45:27.259Z,72.24
2019-02-02T11:47:30.153Z,72.21
2019-02-02T11:49:33.181Z,72.17
2019-02-02T11:51:36.204Z,72.27
2019-02-02T11:53:38.948Z,72.12
2019-02-02T11:55:42.132Z,72.01
2019-02-02T11:57:45.121Z,71.86
2019-02-02T11:59:48.046Z,71.91
2019-02-02T12:01:50.996Z,71.83
2019-02-02T12:03:56.911Z,71.85
2019-02-02T12:06:00.299Z,71.84
2019-02-02T12:08:06.563Z,71.77
2019-02-02T12:10:10.947Z,71.67
2019-02-02T12:12:14.445Z,71.55
2019-02-02T12:14:17.394Z,71.31
2019-02-02T12:16:20.312Z,70.46
2019-02-02T12:18:23.170Z,70.00
2019-02-02T12:20:26.033Z,69.91
2019-02-02T12:22:30.108Z,69.88
2019-02-02T12:24:34.961Z,69.74
2019-02-02T12:26:37.928Z,69.64
2019-02-02T12:28:41.142Z,69.49
2019-02-02T12:30:44.275Z,69.20
2019-02-02T12:32:47.231Z,69.17
2019-02-02T12:34:50.182Z,69.11
2019-02-02T12:36:53.247Z,69.22
2019-02-02T12:38:56.083Z,69.41
2019-02-02T12:40:59.726Z,69.41
2019-02-02T12:43:03.791Z,69.54
2019-02-02T12:45:10.329Z,69.76
2019-02-02T12:47:13.572Z,69.93
2019-02-02T12:49:16.281Z,70.08
2019-02-02T12:51:19.197Z,70.20
2019-02-02T12:53:22.109Z,70.28
2019-02-02T12:55:26.086Z,70.47
2019-02-02T12:57:29.144Z,70.57
2019-02-02T12:59:32.130Z,70.54
2019-02-02T13:01:35.191Z,70.46
2019-02-02T13:03:38.071Z,70.39
2019-02-02T13:05:40.962Z,70.27
2019-02-02T13:07:43.980Z,70.33
2019-02-02T13:09:49.738Z,70.42
2019-02-02T13:11:52.672Z,70.48
2019-02-02T13:13:56.521Z,70.63
2019-02-02T13:15:59.559Z,70.61
2019-02-02T13:18:02.459Z,70.32
2019-02-02T13:20:06.106Z,70.32
2019-02-02T13:22:08.938Z,70.45
2019-02-02T13:24:12.814Z,70.44
2019-02-02T13:26:15.751Z,70.43
2019-02-02T13:28:18.602Z,70.48
2019-02-02T13:30:23.878Z,70.48
2019-02-02T13:32:26.736Z,70.59
2019-02-02T13:34:29.592Z,70.74
2019-02-02T13:36:32.496Z,70.98
2019-02-02T13:38:35.448Z,70.89
2019-02-02T13:40:38.461Z,70.81
2019-02-02T13:42:50.265Z,70.76
2019-02-02T13:44:53.089Z,70.71
2019-02-02T13:46:56.064Z,70.67
2019-02-02T13:48:59.050Z,70.52
2019-02-02T13:51:01.896Z,70.23
2019-02-02T13:53:05.967Z,70.09
2019-02-02T13:55:08.916Z,70.09
2019-02-02T13:57:11.769Z,70.00
2019-02-02T13:59:14.670Z,70.12
2019-02-02T14:01:20.042Z,70.18
2019-02-02T14:03:23.029Z,70.12
2019-02-02T14:05:27.375Z,70.04
2019-02-02T14:07:30.355Z,69.88
2019-02-02T14:09:33.157Z,69.82
2019-02-02T14:11:36.063Z,69.80
2019-02-02T14:13:39.142Z,69.93
2019-02-02T14:15:42.158Z,70.01
2019-02-02T14:17:45.073Z,69.93
2019-02-02T14:19:47.955Z,69.77
2019-02-02T14:21:50.906Z,69.68
2019-02-02T14:23:54.836Z,69.62
2019-02-02T14:25:57.747Z,69.57
2019-02-02T14:28:00.856Z,69.50
2019-02-02T14:30:13.199Z,69.46
2019-02-02T14:32:16.211Z,69.44
2019-02-02T14:34:21.751Z,69.26
2019-02-02T14:36:24.652Z,69.09
2019-02-02T14:38:27.609Z,68.98
2019-02-02T14:40:30.531Z,68.88
2019-02-02T14:42:33.376Z,68.87
2019-02-02T14:44:36.128Z,68.90
2019-02-02T14:46:41.631Z,68.88
2019-02-02T14:48:44.548Z,68.92
2019-02-02T14:50:47.500Z,68.95
2019-02-02T14:52:51.012Z,68.96
2019-02-02T14:54:53.942Z,69.07
2019-02-02T14:56:56.819Z,69.09
2019-02-02T14:58:59.957Z,69.19
2019-02-02T15:01:03.986Z,69.32
2019-02-02T15:03:07.232Z,69.54
2019-02-02T15:05:10.071Z,69.85
2019-02-02T15:07:13.134Z,70.16
2019-02-02T15:09:16.056Z,70.36
2019-02-02T15:11:18.914Z,70.46
2019-02-02T15:13:21.819Z,70.40
2019-02-02T15:15:24.720Z,70.44
2019-02-02T15:17:27.677Z,70.69
2019-02-02T15:19:30.544Z,70.78
2019-02-02T15:21:33.363Z,70.76
2019-02-02T15:23:36.482Z,70.70
2019-02-02T15:25:39.352Z,70.76
2019-02-02T15:27:45.375Z,70.78
2019-02-02T15:29:48.355Z,70.78
2019-02-02T15:31:51.242Z,70.85
2019-02-02T15:33:55.197Z,71.06
2019-02-02T15:35:57.978Z,71.08
2019-02-02T15:38:00.946Z,71.02
2019-02-02T15:40:04.482Z,71.00
2019-02-02T15:42:07.289Z,71.11
2019-02-02T15:44:10.212Z,71.22
2019-02-02T15:46:13.067Z,71.16
2019-02-02T15:48:15.912Z,71.10
2019-02-02T15:50:18.728Z,71.05
2019-02-02T15:52:21.717Z,71.02
2019-02-02T15:54:24.655Z,71.11
2019-02-02T15:56:27.611Z,71.16
2019-02-02T15:58:33.815Z,71.18
2019-02-02T16:00:37.659Z,71.20
2019-02-02T16:02:40.677Z,71.26
2019-02-02T16:04:43.752Z,71.33
2019-02-02T16:06:46.605Z,71.34
2019-02-02T16:08:49.631Z,71.42
2019-02-02T16:10:52.500Z,71.53
2019-02-02T16:12:55.383Z,71.67
2019-02-02T16:14:58.345Z,71.77
2019-02-02T16:17:01.221Z,71.82
2019-02-02T16:19:05.988Z,71.89
2019-02-02T16:21:09.260Z,72.01
2019-02-02T16:23:12.275Z,72.07
2019-02-02T16:25:15.015Z,72.14
2019-02-02T16:27:17.999Z,72.06
2019-02-02T16:29:21.050Z,72.04
2019-02-02T16:31:23.992Z,72.03
2019-02-02T16:33:26.975Z,72.22
2019-02-02T16:35:29.946Z,72.31
2019-02-02T16:37:32.917Z,72.27
2019-02-02T16:39:35.663Z,72.25
2019-02-02T16:41:38.534Z,72.32
2019-02-02T16:43:43.330Z,72.37
2019-02-02T16:45:46.520Z,72.43
2019-02-02T16:47:49.504Z,72.36
2019-02-02T16:49:52.463Z,72.30
2019-02-02T16:51:55.357Z,72.26
2019-02-02T16:53:58.278Z,72.19
2019-02-02T16:56:01.671Z,72.16
2019-02-02T16:58:04.616Z,72.15
2019-02-02T17:00:11.995Z,72.14
2019-02-02T17:02:14.742Z,72.22
2019-02-02T17:04:17.689Z,72.40
2019-02-02T17:06:20.615Z,72.57
2019-02-02T17:08:23.610Z,72.68
2019-02-02T17:10:31.420Z,72.58
2019-02-02T17:12:34.282Z,72.63
2019-02-02T17:14:37.214Z,72.63
2019-02-02T17:16:40.349Z,72.68
2019-02-02T17:18:45.195Z,72.68
2019-02-02T17:20:48.127Z,72.61
2019-02-02T17:22:50.936Z,72.61
2019-02-02T17:24:53.989Z,72.62
2019-02-02T17:26:58.973Z,72.66
2019-02-02T17:29:03.541Z,72.71
2019-02-02T17:31:06.536Z,72.94
2019-02-02T17:33:11.946Z,73.09
2019-02-02T17:35:15.440Z,73.21
2019-02-02T17:37:18.299Z,73.33
2019-02-02T17:39:21.876Z,73.30
2019-02-02T17:41:24.927Z,73.24
2019-02-02T17:43:28.036Z,73.22
2019-02-02T17:45:31.265Z,73.27
2019-02-02T17:47:35.127Z,73.22
2019-02-02T17:49:38.167Z,73.11
2019-02-02T17:51:41.152Z,73.10
2019-02-02T17:53:44.200Z,73.11
2019-02-02T17:55:47.264Z,73.10
2019-02-02T17:57:50.243Z,73.08
2019-02-02T17:59:54.433Z,73.04
2019-02-02T18:02:00.554Z,73.01
2019-02-02T18:04:06.068Z,72.95
2019-02-02T18:06:08.877Z,72.87
2019-02-02T18:08:11.880Z,72.85
2019-02-02T18:10:15.159Z,72.85
2019-02-02T18:12:18.005Z,72.79
2019-02-02T18:14:20.787Z,72.77
2019-02-02T18:16:23.841Z,72.76
2019-02-02T18:18:27.093Z,72.73
2019-02-02T18:20:30.057Z,73.09
2019-02-02T18:22:32.987Z,73.32
2019-02-02T18:24:35.982Z,73.61
2019-02-02T18:26:38.873Z,73.83
2019-02-02T18:28:44.918Z,73.94
2019-02-02T18:30:47.853Z,74.10
2019-02-02T18:32:50.651Z,74.20
2019-02-02T18:34:53.731Z,74.40
2019-02-02T18:36:56.790Z,74.67
2019-02-02T18:38:59.630Z,75.37
2019-02-02T18:41:02.672Z,75.34
2019-02-02T18:43:05.594Z,75.28
2019-02-02T18:45:11.105Z,75.10
2019-02-02T18:47:14.268Z,75.00
2019-02-02T18:49:17.232Z,74.93
2019-02-02T18:51:20.201Z,74.80
2019-02-02T18:53:25.004Z,74.69
2019-02-02T18:55:36.069Z,74.61
2019-02-02T18:57:40.080Z,74.43
2019-02-02T18:59:43.054Z,74.33
2019-02-02T19:01:46.015Z,74.28
2019-02-02T19:03:49.005Z,74.46
2019-02-02T19:05:54.820Z,74.52
2019-02-02T19:07:57.709Z,74.50
2019-02-02T19:10:00.880Z,74.32
2019-02-02T19:12:03.938Z,74.32
2019-02-02T19:14:07.005Z,74.30
2019-02-02T19:16:10.159Z,74.23
2019-02-02T19:18:13.098Z,74.13
2019-02-02T19:20:17.823Z,74.01
2019-02-02T19:22:20.885Z,73.99
2019-02-02T19:24:26.163Z,74.13
2019-02-02T19:26:29.538Z,74.11
2019-02-02T19:28:39.963Z,74.15
2019-02-02T19:30:41.646Z,74.09
2019-02-02T19:32:44.756Z,74.07
2019-02-02T19:34:48.029Z,74.02
2019-02-02T19:36:51.098Z,73.96
2019-02-02T19:38:54.239Z,73.93
2019-02-02T19:40:57.866Z,73.90
2019-02-02T19:43:00.888Z,73.80
2019-02-02T19:45:04.216Z,73.76
2019-02-02T19:47:15.866Z,73.70
2019-02-02T19:49:12.362Z,73.66
2019-02-02T19:51:15.518Z,73.60
2019-02-02T19:53:19.684Z,73.58
2019-02-02T19:55:23.666Z,73.52
2019-02-02T19:57:26.853Z,73.50
2019-02-02T19:59:29.896Z,73.49
2019-02-02T20:01:33.032Z,73.51
2019-02-02T20:03:36.104Z,73.52
2019-02-02T20:05:39.350Z,73.71
2019-02-02T20:07:42.317Z,73.79
2019-02-02T20:09:45.311Z,73.83
2019-02-02T20:11:48.471Z,73.87
2019-02-02T20:13:51.603Z,73.80
2019-02-02T20:15:55.732Z,73.73
2019-02-02T20:18:09.323Z,73.70
2019-02-02T20:20:05.905Z,73.66
2019-02-02T20:22:08.955Z,73.58
2019-02-02T20:25:00.553Z,73.53
2019-02-02T20:27:03.457Z,73.36
2019-02-02T20:29:06.417Z,73.37
2019-02-02T20:31:09.492Z,73.33
2019-02-02T20:33:12.350Z,73.33
2019-02-02T20:35:15.798Z,73.30
2019-02-02T20:37:19.747Z,73.24
2019-02-02T20:39:22.748Z,73.32
2019-02-02T20:41:25.683Z,73.36
2019-02-02T20:43:28.698Z,73.44
2019-02-02T20:45:33.174Z,73.38
2019-02-02T20:47:36.258Z,73.42
2019-02-02T20:49:39.155Z,73.42
2019-02-02T20:51:42.642Z,73.38
2019-02-02T20:53:45.622Z,73.34
2019-02-02T20:55:49.611Z,73.32
2019-02-02T20:57:52.694Z,73.25
2019-02-02T20:59:55.689Z,73.22
2019-02-02T21:01:59.133Z,73.17
2019-02-02T21:04:02.129Z,73.09
2019-02-02T21:06:04.999Z,73.02
2019-02-02T21:08:08.007Z,73.09
2019-02-02T21:10:13.661Z,73.22
2019-02-02T21:12:16.805Z,73.28
2019-02-02T21:14:20.170Z,73.26
2019-02-02T21:16:24.555Z,73.23
2019-02-02T21:18:27.784Z,73.14
2019-02-02T21:20:32.286Z,73.09
2019-02-02T21:22:35.756Z,73.23
2019-02-02T21:24:39.560Z,73.25
2019-02-02T21:26:43.957Z,73.21
2019-02-02T21:28:50.619Z,73.13
2019-02-02T21:30:52.052Z,73.11
2019-02-02T21:32:55.049Z,73.24
2019-02-02T21:34:58.207Z,73.22
2019-02-02T21:37:01.347Z,73.16
2019-02-02T21:39:07.105Z,73.19
2019-02-02T21:41:10.281Z,73.13
2019-02-02T21:43:13.270Z,73.02
2019-02-02T21:45:16.169Z,73.01
2019-02-02T21:47:19.690Z,73.17
2019-02-02T21:49:22.815Z,73.27
2019-02-02T21:51:25.811Z,73.18
2019-02-02T21:53:28.932Z,73.15
2019-02-02T21:55:32.864Z,73.35
2019-02-02T21:57:35.894Z,73.51
2019-02-02T21:59:38.810Z,73.42
2019-02-02T22:01:42.000Z,73.64
2019-02-02T22:03:45.153Z,73.71
2019-02-02T22:05:48.306Z,73.78
2019-02-02T22:07:51.374Z,74.02
2019-02-02T22:09:54.733Z,74.21
2019-02-02T22:11:58.008Z,74.48
2019-02-02T22:14:04.310Z,74.60
2019-02-02T22:16:09.348Z,74.67
2019-02-02T22:18:12.205Z,74.75
2019-02-02T22:20:15.805Z,74.83
2019-02-02T22:22:19.960Z,74.95
2019-02-02T22:24:23.176Z,74.93
2019-02-02T22:26:26.270Z,75.09
2019-02-02T22:28:29.469Z,75.07
2019-02-02T22:30:33.771Z,75.02
2019-02-02T22:32:37.886Z,75.04
2019-02-02T22:34:40.829Z,75.03
2019-02-02T22:36:44.869Z,74.93
2019-02-02T22:38:51.757Z,74.77
2019-02-02T22:40:55.363Z,74.60
2019-02-02T22:42:58.451Z,74.53
2019-02-02T22:45:01.635Z,74.37
2019-02-02T22:47:05.622Z,74.25
2019-02-02T22:49:08.964Z,74.11
2019-02-02T22:51:12.458Z,74.06
2019-02-02T22:53:15.470Z,74.07
2019-02-02T22:55:18.951Z,74.12
2019-02-02T22:57:22.323Z,74.21
2019-02-02T22:59:25.557Z,74.28
2019-02-02T23:01:48.307Z,74.38
2019-02-02T23:04:24.911Z,74.34
2019-02-02T23:06:41.025Z,74.22
2019-02-02T23:09:14.221Z,74.10
2019-02-02T23:11:46.765Z,74.09
2019-02-02T23:14:40.819Z,74.11
2019-02-02T23:16:43.865Z,74.20
2019-02-02T23:18:48.732Z,74.16
2019-02-02T23:20:54.824Z,74.19
2019-02-02T23:22:58.211Z,74.31
2019-02-02T23:25:01.152Z,74.31
2019-02-02T23:27:04.227Z,74.22
2019-02-02T23:29:07.707Z,74.17
2019-02-02T23:31:10.727Z,74.08
2019-02-02T23:33:13.970Z,74.00
2019-02-02T23:35:16.854Z,74.11
2019-02-02T23:37:19.846Z,74.21
2019-02-02T23:39:23.939Z,74.25
2019-02-02T23:41:26.999Z,74.17
2019-02-02T23:43:30.317Z,74.20
2019-02-02T23:45:33.213Z,74.30
2019-02-02T23:47:36.122Z,74.29
2019-02-02T23:49:39.045Z,74.24
2019-02-02T23:51:42.063Z,74.19
2019-02-02T23:53:45.348Z,74.14
2019-02-02T23:55:48.314Z,74.07
2019-02-02T23:57:51.216Z,74.10
2019-02-02T23:59:54.264Z,74.14
